sensor_id;sensor_type;location;lat;lon;timestamp;temperature;humidity
10812;DHT22;5458;51.496;7.334;2022-08-19T00:01:10;21.10;99.90
10812;DHT22;5458;51.496;7.334;2022-08-19T00:03:35;21.10;99.90
10812;DHT22;5458;51.496;7.334;2022-08-19T00:06:01;21.00;99.90
10812;DHT22;5458;51.496;7.334;2022-08-19T00:08:27;21.10;99.90
10812;DHT22;5458;51.496;7.334;2022-08-19T00:10:52;21.00;99.90
10812;DHT22;5458;51.496;7.334;2022-08-19T00:13:18;21.00;99.90
10812;DHT22;5458;51.496;7.334;2022-08-19T00:15:44;21.00;99.90
10812;DHT22;5458;51.496;7.334;2022-08-19T00:18:10;20.90;99.90
10812;DHT22;5458;51.496;7.334;2022-08-19T00:20:36;20.90;99.90
10812;DHT22;5458;51.496;7.334;2022-08-19T00:23:03;20.90;99.90
10812;DHT22;5458;51.496;7.334;2022-08-19T00:25:29;20.90;99.90
10812;DHT22;5458;51.496;7.334;2022-08-19T00:27:54;20.90;99.90
10812;DHT22;5458;51.496;7.334;2022-08-19T00:30:21;20.90;99.90
10812;DHT22;5458;51.496;7.334;2022-08-19T00:32:46;20.80;99.90
10812;DHT22;5458;51.496;7.334;2022-08-19T00:35:12;20.80;99.90
10812;DHT22;5458;51.496;7.334;2022-08-19T00:37:38;20.80;99.90
10812;DHT22;5458;51.496;7.334;2022-08-19T00:40:09;20.80;99.90
10812;DHT22;5458;51.496;7.334;2022-08-19T00:42:35;20.80;99.90
10812;DHT22;5458;51.496;7.334;2022-08-19T00:45:01;20.70;99.90
10812;DHT22;5458;51.496;7.334;2022-08-19T00:47:26;20.70;99.90
10812;DHT22;5458;51.496;7.334;2022-08-19T00:49:56;20.70;99.90
10812;DHT22;5458;51.496;7.334;2022-08-19T00:52:32;20.70;99.90
10812;DHT22;5458;51.496;7.334;2022-08-19T00:54:59;20.70;99.90
10812;DHT22;5458;51.496;7.334;2022-08-19T00:57:35;20.70;99.90
10812;DHT22;5458;51.496;7.334;2022-08-19T01:00:05;20.70;99.90
10812;DHT22;5458;51.496;7.334;2022-08-19T01:02:32;20.70;99.90
10812;DHT22;5458;51.496;7.334;2022-08-19T01:05:00;20.60;99.90
10812;DHT22;5458;51.496;7.334;2022-08-19T01:07:27;20.60;99.90
10812;DHT22;5458;51.496;7.334;2022-08-19T01:09:52;20.60;99.90
10812;DHT22;5458;51.496;7.334;2022-08-19T01:12:18;20.60;99.90
10812;DHT22;5458;51.496;7.334;2022-08-19T01:14:45;20.60;99.90
10812;DHT22;5458;51.496;7.334;2022-08-19T01:17:11;20.50;99.90
10812;DHT22;5458;51.496;7.334;2022-08-19T01:19:40;20.50;99.90
10812;DHT22;5458;51.496;7.334;2022-08-19T01:22:12;20.50;99.90
10812;DHT22;5458;51.496;7.334;2022-08-19T01:24:40;20.50;99.90
10812;DHT22;5458;51.496;7.334;2022-08-19T01:27:06;20.40;99.90
10812;DHT22;5458;51.496;7.334;2022-08-19T01:29:33;20.40;99.90
10812;DHT22;5458;51.496;7.334;2022-08-19T01:32:00;20.40;99.90
10812;DHT22;5458;51.496;7.334;2022-08-19T01:34:26;20.40;99.90
10812;DHT22;5458;51.496;7.334;2022-08-19T01:36:52;20.40;99.90
10812;DHT22;5458;51.496;7.334;2022-08-19T01:39:23;20.40;99.90
10812;DHT22;5458;51.496;7.334;2022-08-19T01:41:50;20.30;99.90
10812;DHT22;5458;51.496;7.334;2022-08-19T01:44:17;20.30;99.90
10812;DHT22;5458;51.496;7.334;2022-08-19T01:46:47;20.30;99.90
10812;DHT22;5458;51.496;7.334;2022-08-19T01:49:13;20.30;99.90
10812;DHT22;5458;51.496;7.334;2022-08-19T01:51:39;20.30;99.90
10812;DHT22;5458;51.496;7.334;2022-08-19T01:54:04;20.20;99.90
10812;DHT22;5458;51.496;7.334;2022-08-19T01:56:30;20.20;99.90
10812;DHT22;5458;51.496;7.334;2022-08-19T01:59:01;20.20;99.90
10812;DHT22;5458;51.496;7.334;2022-08-19T02:01:27;20.20;99.90
10812;DHT22;5458;51.496;7.334;2022-08-19T02:03:57;20.20;99.90
10812;DHT22;5458;51.496;7.334;2022-08-19T02:06:23;20.20;99.90
10812;DHT22;5458;51.496;7.334;2022-08-19T02:08:49;20.20;99.90
10812;DHT22;5458;51.496;7.334;2022-08-19T02:11:22;20.10;99.90
10812;DHT22;5458;51.496;7.334;2022-08-19T02:13:48;20.20;99.90
10812;DHT22;5458;51.496;7.334;2022-08-19T02:16:18;20.10;99.90
10812;DHT22;5458;51.496;7.334;2022-08-19T02:18:44;20.20;99.90
10812;DHT22;5458;51.496;7.334;2022-08-19T02:21:10;20.10;99.90
10812;DHT22;5458;51.496;7.334;2022-08-19T02:23:36;20.10;99.90
10812;DHT22;5458;51.496;7.334;2022-08-19T02:26:02;20.10;99.90
10812;DHT22;5458;51.496;7.334;2022-08-19T02:28:28;20.10;99.90
10812;DHT22;5458;51.496;7.334;2022-08-19T02:30:53;20.10;99.90
10812;DHT22;5458;51.496;7.334;2022-08-19T02:33:19;20.10;99.90
10812;DHT22;5458;51.496;7.334;2022-08-19T02:35:45;20.00;99.90
10812;DHT22;5458;51.496;7.334;2022-08-19T02:38:11;20.00;99.90
10812;DHT22;5458;51.496;7.334;2022-08-19T02:41:05;20.00;99.90
10812;DHT22;5458;51.496;7.334;2022-08-19T02:43:33;20.00;99.90
10812;DHT22;5458;51.496;7.334;2022-08-19T02:46:16;20.00;99.90
10812;DHT22;5458;51.496;7.334;2022-08-19T02:48:49;20.00;99.90
10812;DHT22;5458;51.496;7.334;2022-08-19T02:51:18;20.00;99.90
10812;DHT22;5458;51.496;7.334;2022-08-19T02:53:44;20.00;99.90
10812;DHT22;5458;51.496;7.334;2022-08-19T02:56:10;20.00;99.90
10812;DHT22;5458;51.496;7.334;2022-08-19T02:58:35;20.00;99.90
10812;DHT22;5458;51.496;7.334;2022-08-19T03:01:01;19.90;99.90
10812;DHT22;5458;51.496;7.334;2022-08-19T03:03:26;19.90;99.90
10812;DHT22;5458;51.496;7.334;2022-08-19T03:06:05;19.90;99.90
10812;DHT22;5458;51.496;7.334;2022-08-19T03:08:31;19.90;99.90
10812;DHT22;5458;51.496;7.334;2022-08-19T03:10:57;19.90;99.90
10812;DHT22;5458;51.496;7.334;2022-08-19T03:13:23;19.90;99.90
10812;DHT22;5458;51.496;7.334;2022-08-19T03:15:49;19.80;99.90
10812;DHT22;5458;51.496;7.334;2022-08-19T03:18:15;19.90;99.90
10812;DHT22;5458;51.496;7.334;2022-08-19T03:20:43;19.80;99.90
10812;DHT22;5458;51.496;7.334;2022-08-19T03:23:09;19.80;99.90
10812;DHT22;5458;51.496;7.334;2022-08-19T03:25:40;19.80;99.90
10812;DHT22;5458;51.496;7.334;2022-08-19T03:28:09;19.80;99.90
10812;DHT22;5458;51.496;7.334;2022-08-19T03:30:35;19.80;99.90
10812;DHT22;5458;51.496;7.334;2022-08-19T03:33:01;19.80;99.90
10812;DHT22;5458;51.496;7.334;2022-08-19T03:35:27;19.80;99.90
10812;DHT22;5458;51.496;7.334;2022-08-19T03:37:53;19.70;99.90
10812;DHT22;5458;51.496;7.334;2022-08-19T03:40:19;19.70;99.90
10812;DHT22;5458;51.496;7.334;2022-08-19T03:42:45;19.70;99.90
10812;DHT22;5458;51.496;7.334;2022-08-19T03:45:11;19.80;99.90
10812;DHT22;5458;51.496;7.334;2022-08-19T03:47:37;19.80;99.90
10812;DHT22;5458;51.496;7.334;2022-08-19T03:50:03;19.70;99.90
10812;DHT22;5458;51.496;7.334;2022-08-19T03:52:29;19.70;99.90
10812;DHT22;5458;51.496;7.334;2022-08-19T03:54:55;19.70;99.90
10812;DHT22;5458;51.496;7.334;2022-08-19T03:57:20;19.60;99.90
10812;DHT22;5458;51.496;7.334;2022-08-19T03:59:46;19.70;99.90
10812;DHT22;5458;51.496;7.334;2022-08-19T04:02:12;19.70;99.90
10812;DHT22;5458;51.496;7.334;2022-08-19T04:04:40;19.70;99.90
10812;DHT22;5458;51.496;7.334;2022-08-19T04:07:06;19.70;99.90
10812;DHT22;5458;51.496;7.334;2022-08-19T04:09:34;19.70;99.90
10812;DHT22;5458;51.496;7.334;2022-08-19T04:12:02;19.60;99.90
10812;DHT22;5458;51.496;7.334;2022-08-19T04:14:30;19.70;99.90
10812;DHT22;5458;51.496;7.334;2022-08-19T04:16:58;19.60;99.90
10812;DHT22;5458;51.496;7.334;2022-08-19T04:19:24;19.60;99.90
10812;DHT22;5458;51.496;7.334;2022-08-19T04:21:52;19.50;99.90
10812;DHT22;5458;51.496;7.334;2022-08-19T04:24:19;19.60;99.90
10812;DHT22;5458;51.496;7.334;2022-08-19T04:26:46;19.50;99.90
10812;DHT22;5458;51.496;7.334;2022-08-19T04:29:18;19.50;99.90
10812;DHT22;5458;51.496;7.334;2022-08-19T04:31:44;19.50;99.90
10812;DHT22;5458;51.496;7.334;2022-08-19T04:34:12;19.50;99.90
10812;DHT22;5458;51.496;7.334;2022-08-19T04:36:40;19.50;99.90
10812;DHT22;5458;51.496;7.334;2022-08-19T04:39:09;19.50;99.90
10812;DHT22;5458;51.496;7.334;2022-08-19T04:41:35;19.50;99.90
10812;DHT22;5458;51.496;7.334;2022-08-19T04:44:20;19.50;99.90
10812;DHT22;5458;51.496;7.334;2022-08-19T04:46:47;19.60;99.90
10812;DHT22;5458;51.496;7.334;2022-08-19T04:49:18;19.60;99.90
10812;DHT22;5458;51.496;7.334;2022-08-19T04:51:45;19.60;99.90
10812;DHT22;5458;51.496;7.334;2022-08-19T04:54:13;19.60;99.90
10812;DHT22;5458;51.496;7.334;2022-08-19T04:56:40;19.60;99.90
10812;DHT22;5458;51.496;7.334;2022-08-19T04:59:06;19.70;99.90
10812;DHT22;5458;51.496;7.334;2022-08-19T05:01:33;19.70;99.90
10812;DHT22;5458;51.496;7.334;2022-08-19T05:04:00;19.80;99.90
10812;DHT22;5458;51.496;7.334;2022-08-19T05:06:27;19.80;99.90
10812;DHT22;5458;51.496;7.334;2022-08-19T05:08:54;19.80;99.90
10812;DHT22;5458;51.496;7.334;2022-08-19T05:11:25;19.90;99.90
10812;DHT22;5458;51.496;7.334;2022-08-19T05:13:51;19.90;99.90
10812;DHT22;5458;51.496;7.334;2022-08-19T05:16:21;20.00;99.90
10812;DHT22;5458;51.496;7.334;2022-08-19T05:18:48;20.10;99.90
10812;DHT22;5458;51.496;7.334;2022-08-19T05:21:33;20.20;99.90
10812;DHT22;5458;51.496;7.334;2022-08-19T05:24:18;20.30;99.90
10812;DHT22;5458;51.496;7.334;2022-08-19T05:26:47;20.40;99.90
10812;DHT22;5458;51.496;7.334;2022-08-19T05:29:18;20.60;99.90
10812;DHT22;5458;51.496;7.334;2022-08-19T05:31:45;20.70;99.90
10812;DHT22;5458;51.496;7.334;2022-08-19T05:34:11;20.80;99.90
10812;DHT22;5458;51.496;7.334;2022-08-19T05:36:40;21.00;99.90
10812;DHT22;5458;51.496;7.334;2022-08-19T05:39:07;21.00;99.90
10812;DHT22;5458;51.496;7.334;2022-08-19T05:41:33;21.00;99.90
10812;DHT22;5458;51.496;7.334;2022-08-19T05:44:04;21.00;99.90
10812;DHT22;5458;51.496;7.334;2022-08-19T05:46:32;21.00;99.90
10812;DHT22;5458;51.496;7.334;2022-08-19T05:48:57;21.20;99.90
10812;DHT22;5458;51.496;7.334;2022-08-19T05:51:24;21.80;99.90
10812;DHT22;5458;51.496;7.334;2022-08-19T05:53:50;22.60;99.90
10812;DHT22;5458;51.496;7.334;2022-08-19T05:56:17;23.40;99.90
10812;DHT22;5458;51.496;7.334;2022-08-19T05:58:44;24.30;99.90
10812;DHT22;5458;51.496;7.334;2022-08-19T06:01:13;25.50;99.90
10812;DHT22;5458;51.496;7.334;2022-08-19T06:03:40;26.60;98.90
10812;DHT22;5458;51.496;7.334;2022-08-19T06:06:08;27.60;96.50
10812;DHT22;5458;51.496;7.334;2022-08-19T06:08:35;28.40;94.70
10812;DHT22;5458;51.496;7.334;2022-08-19T06:13:47;29.70;91.80
10812;DHT22;5458;51.496;7.334;2022-08-19T06:16:16;29.80;91.00
10812;DHT22;5458;51.496;7.334;2022-08-19T06:18:48;29.40;91.00
10812;DHT22;5458;51.496;7.334;2022-08-19T06:21:14;29.20;91.40
10812;DHT22;5458;51.496;7.334;2022-08-19T06:23:40;29.10;91.40
10812;DHT22;5458;51.496;7.334;2022-08-19T06:26:05;29.10;91.20
10812;DHT22;5458;51.496;7.334;2022-08-19T06:28:31;28.70;91.30
10812;DHT22;5458;51.496;7.334;2022-08-19T06:30:58;28.00;92.00
10812;DHT22;5458;51.496;7.334;2022-08-19T06:33:24;27.30;93.70
10812;DHT22;5458;51.496;7.334;2022-08-19T06:35:49;27.30;94.00
10812;DHT22;5458;51.496;7.334;2022-08-19T06:38:15;27.80;93.80
10812;DHT22;5458;51.496;7.334;2022-08-19T06:40:41;28.70;92.70
10812;DHT22;5458;51.496;7.334;2022-08-19T06:43:06;29.60;91.20
10812;DHT22;5458;51.496;7.334;2022-08-19T06:45:32;30.40;89.30
10812;DHT22;5458;51.496;7.334;2022-08-19T06:47:58;31.30;86.40
10812;DHT22;5458;51.496;7.334;2022-08-19T06:50:24;32.00;82.60
10812;DHT22;5458;51.496;7.334;2022-08-19T06:52:50;32.50;80.20
10812;DHT22;5458;51.496;7.334;2022-08-19T06:55:15;32.60;78.50
10812;DHT22;5458;51.496;7.334;2022-08-19T06:57:42;32.90;77.30
10812;DHT22;5458;51.496;7.334;2022-08-19T07:00:09;33.00;76.70
10812;DHT22;5458;51.496;7.334;2022-08-19T07:02:43;33.10;75.90
10812;DHT22;5458;51.496;7.334;2022-08-19T07:05:09;33.30;74.30
10812;DHT22;5458;51.496;7.334;2022-08-19T07:07:35;33.10;74.50
10812;DHT22;5458;51.496;7.334;2022-08-19T07:10:01;33.00;74.20
10812;DHT22;5458;51.496;7.334;2022-08-19T07:12:31;32.70;74.50
10812;DHT22;5458;51.496;7.334;2022-08-19T07:14:58;32.30;75.40
10812;DHT22;5458;51.496;7.334;2022-08-19T07:17:25;32.00;76.30
10812;DHT22;5458;51.496;7.334;2022-08-19T07:19:51;31.80;76.70
10812;DHT22;5458;51.496;7.334;2022-08-19T07:22:16;31.50;77.30
10812;DHT22;5458;51.496;7.334;2022-08-19T07:24:43;31.30;77.80
10812;DHT22;5458;51.496;7.334;2022-08-19T07:27:08;31.30;78.60
10812;DHT22;5458;51.496;7.334;2022-08-19T07:29:35;31.20;78.80
10812;DHT22;5458;51.496;7.334;2022-08-19T07:32:02;30.90;79.10
10812;DHT22;5458;51.496;7.334;2022-08-19T07:34:29;31.40;78.50
10812;DHT22;5458;51.496;7.334;2022-08-19T07:36:55;32.00;77.30
10812;DHT22;5458;51.496;7.334;2022-08-19T07:39:28;32.70;75.20
10812;DHT22;5458;51.496;7.334;2022-08-19T07:41:55;33.00;72.60
10812;DHT22;5458;51.496;7.334;2022-08-19T07:44:22;33.40;72.60
10812;DHT22;5458;51.496;7.334;2022-08-19T07:46:51;34.10;71.00
10812;DHT22;5458;51.496;7.334;2022-08-19T07:49:18;35.00;68.20
10812;DHT22;5458;51.496;7.334;2022-08-19T07:52:03;35.90;64.10
10812;DHT22;5458;51.496;7.334;2022-08-19T07:54:31;36.60;61.00
10812;DHT22;5458;51.496;7.334;2022-08-19T07:56:57;36.60;59.70
10812;DHT22;5458;51.496;7.334;2022-08-19T07:59:24;36.20;60.50
10812;DHT22;5458;51.496;7.334;2022-08-19T08:01:50;36.00;60.20
10812;DHT22;5458;51.496;7.334;2022-08-19T08:04:17;35.80;59.70
10812;DHT22;5458;51.496;7.334;2022-08-19T08:07:03;35.60;60.10
10812;DHT22;5458;51.496;7.334;2022-08-19T08:09:47;35.60;60.60
10812;DHT22;5458;51.496;7.334;2022-08-19T08:12:22;35.60;59.90
10812;DHT22;5458;51.496;7.334;2022-08-19T08:14:53;36.10;59.70
10812;DHT22;5458;51.496;7.334;2022-08-19T08:17:23;37.00;57.60
10812;DHT22;5458;51.496;7.334;2022-08-19T08:19:49;37.50;56.50
10812;DHT22;5458;51.496;7.334;2022-08-19T08:22:18;37.30;56.10
10812;DHT22;5458;51.496;7.334;2022-08-19T08:25:06;36.70;56.60
10812;DHT22;5458;51.496;7.334;2022-08-19T08:27:36;35.80;57.70
10812;DHT22;5458;51.496;7.334;2022-08-19T08:30:06;35.10;58.80
10812;DHT22;5458;51.496;7.334;2022-08-19T08:32:35;34.50;60.50
10812;DHT22;5458;51.496;7.334;2022-08-19T08:35:01;34.00;61.40
10812;DHT22;5458;51.496;7.334;2022-08-19T08:37:26;33.80;62.20
10812;DHT22;5458;51.496;7.334;2022-08-19T08:39:52;33.60;62.00
10812;DHT22;5458;51.496;7.334;2022-08-19T08:42:34;33.20;64.50
10812;DHT22;5458;51.496;7.334;2022-08-19T08:45:13;33.00;65.80
10812;DHT22;5458;51.496;7.334;2022-08-19T08:47:43;32.70;66.40
10812;DHT22;5458;51.496;7.334;2022-08-19T08:50:24;32.40;67.30
10812;DHT22;5458;51.496;7.334;2022-08-19T08:52:53;32.00;68.30
10812;DHT22;5458;51.496;7.334;2022-08-19T08:55:23;31.60;69.40
10812;DHT22;5458;51.496;7.334;2022-08-19T09:00:18;30.80;71.90
10812;DHT22;5458;51.496;7.334;2022-08-19T09:02:45;30.60;73.90
10812;DHT22;5458;51.496;7.334;2022-08-19T09:05:11;30.50;73.50
10812;DHT22;5458;51.496;7.334;2022-08-19T09:07:54;30.40;74.60
10812;DHT22;5458;51.496;7.334;2022-08-19T09:13:07;30.10;75.70
10812;DHT22;5458;51.496;7.334;2022-08-19T09:15:49;30.00;76.50
10812;DHT22;5458;51.496;7.334;2022-08-19T09:18:16;30.40;75.30
10812;DHT22;5458;51.496;7.334;2022-08-19T09:20:42;30.50;71.20
10812;DHT22;5458;51.496;7.334;2022-08-19T09:23:08;30.30;72.00
10812;DHT22;5458;51.496;7.334;2022-08-19T09:25:34;30.30;71.50
10812;DHT22;5458;51.496;7.334;2022-08-19T09:28:01;30.30;71.50
10812;DHT22;5458;51.496;7.334;2022-08-19T09:30:32;30.40;72.80
10812;DHT22;5458;51.496;7.334;2022-08-19T09:32:58;30.80;71.20
10812;DHT22;5458;51.496;7.334;2022-08-19T09:35:26;31.10;71.40
10812;DHT22;5458;51.496;7.334;2022-08-19T09:37:52;31.20;70.20
10812;DHT22;5458;51.496;7.334;2022-08-19T09:40:19;31.00;70.40
10812;DHT22;5458;51.496;7.334;2022-08-19T09:42:45;30.40;72.00
10812;DHT22;5458;51.496;7.334;2022-08-19T09:45:16;29.70;74.10
10812;DHT22;5458;51.496;7.334;2022-08-19T09:47:43;29.40;76.20
10812;DHT22;5458;51.496;7.334;2022-08-19T09:50:11;29.40;77.30
10812;DHT22;5458;51.496;7.334;2022-08-19T09:52:37;29.60;77.20
10812;DHT22;5458;51.496;7.334;2022-08-19T09:55:07;29.70;76.10
10812;DHT22;5458;51.496;7.334;2022-08-19T09:57:33;30.10;76.50
10812;DHT22;5458;51.496;7.334;2022-08-19T09:59:59;30.50;75.50
10812;DHT22;5458;51.496;7.334;2022-08-19T10:02:25;30.40;71.90
10812;DHT22;5458;51.496;7.334;2022-08-19T10:04:51;29.90;72.50
10812;DHT22;5458;51.496;7.334;2022-08-19T10:07:36;29.80;73.60
10812;DHT22;5458;51.496;7.334;2022-08-19T10:10:04;29.70;73.00
10812;DHT22;5458;51.496;7.334;2022-08-19T10:12:31;29.80;72.70
10812;DHT22;5458;51.496;7.334;2022-08-19T10:14:58;29.90;70.60
10812;DHT22;5458;51.496;7.334;2022-08-19T10:17:23;29.80;71.00
10812;DHT22;5458;51.496;7.334;2022-08-19T10:19:50;29.70;71.10
10812;DHT22;5458;51.496;7.334;2022-08-19T10:22:17;29.50;72.30
10812;DHT22;5458;51.496;7.334;2022-08-19T10:24:43;29.40;73.20
10812;DHT22;5458;51.496;7.334;2022-08-19T10:27:08;29.30;74.50
10812;DHT22;5458;51.496;7.334;2022-08-19T10:29:35;29.40;73.70
10812;DHT22;5458;51.496;7.334;2022-08-19T10:32:02;29.40;73.30
10812;DHT22;5458;51.496;7.334;2022-08-19T10:34:29;29.30;74.30
10812;DHT22;5458;51.496;7.334;2022-08-19T10:36:56;29.40;74.00
10812;DHT22;5458;51.496;7.334;2022-08-19T10:39:21;29.50;74.30
10812;DHT22;5458;51.496;7.334;2022-08-19T10:41:47;29.70;72.70
10812;DHT22;5458;51.496;7.334;2022-08-19T10:44:14;29.80;72.40
10812;DHT22;5458;51.496;7.334;2022-08-19T10:46:43;30.00;71.70
10812;DHT22;5458;51.496;7.334;2022-08-19T10:49:10;30.10;71.40
10812;DHT22;5458;51.496;7.334;2022-08-19T10:51:38;29.90;71.40
10812;DHT22;5458;51.496;7.334;2022-08-19T10:54:22;30.00;71.10
10812;DHT22;5458;51.496;7.334;2022-08-19T10:56:48;29.80;69.40
10812;DHT22;5458;51.496;7.334;2022-08-19T10:59:25;30.00;69.90
10812;DHT22;5458;51.496;7.334;2022-08-19T11:01:54;30.00;69.60
10812;DHT22;5458;51.496;7.334;2022-08-19T11:04:20;30.00;69.30
10812;DHT22;5458;51.496;7.334;2022-08-19T11:06:47;29.90;69.10
10812;DHT22;5458;51.496;7.334;2022-08-19T11:09:20;29.70;69.40
10812;DHT22;5458;51.496;7.334;2022-08-19T11:11:46;29.60;69.20
10812;DHT22;5458;51.496;7.334;2022-08-19T11:14:15;29.60;70.00
10812;DHT22;5458;51.496;7.334;2022-08-19T11:16:42;29.60;69.50
10812;DHT22;5458;51.496;7.334;2022-08-19T11:19:09;29.40;67.50
10812;DHT22;5458;51.496;7.334;2022-08-19T11:21:41;29.40;69.10
10812;DHT22;5458;51.496;7.334;2022-08-19T11:24:10;29.50;70.00
10812;DHT22;5458;51.496;7.334;2022-08-19T11:26:37;29.60;69.70
10812;DHT22;5458;51.496;7.334;2022-08-19T11:29:04;29.50;68.40
10812;DHT22;5458;51.496;7.334;2022-08-19T11:31:33;29.40;68.60
10812;DHT22;5458;51.496;7.334;2022-08-19T11:34:03;29.30;69.20
10812;DHT22;5458;51.496;7.334;2022-08-19T11:36:30;29.20;69.50
10812;DHT22;5458;51.496;7.334;2022-08-19T11:38:56;29.20;69.50
10812;DHT22;5458;51.496;7.334;2022-08-19T11:41:23;29.10;69.80
10812;DHT22;5458;51.496;7.334;2022-08-19T11:43:50;29.20;69.90
10812;DHT22;5458;51.496;7.334;2022-08-19T11:46:16;29.20;71.10
10812;DHT22;5458;51.496;7.334;2022-08-19T11:48:43;29.10;71.00
10812;DHT22;5458;51.496;7.334;2022-08-19T11:51:12;29.00;73.10
10812;DHT22;5458;51.496;7.334;2022-08-19T11:53:38;29.10;72.50
10812;DHT22;5458;51.496;7.334;2022-08-19T11:56:06;29.20;71.40
10812;DHT22;5458;51.496;7.334;2022-08-19T11:58:32;29.30;70.30
10812;DHT22;5458;51.496;7.334;2022-08-19T12:00:59;29.50;69.50
10812;DHT22;5458;51.496;7.334;2022-08-19T12:03:25;29.40;70.50
10812;DHT22;5458;51.496;7.334;2022-08-19T12:05:51;29.50;69.20
10812;DHT22;5458;51.496;7.334;2022-08-19T12:08:17;29.50;66.50
10812;DHT22;5458;51.496;7.334;2022-08-19T12:10:43;29.50;65.70
10812;DHT22;5458;51.496;7.334;2022-08-19T12:13:12;29.60;67.30
10812;DHT22;5458;51.496;7.334;2022-08-19T12:15:41;29.60;65.00
10812;DHT22;5458;51.496;7.334;2022-08-19T12:18:08;29.70;66.30
10812;DHT22;5458;51.496;7.334;2022-08-19T12:20:35;29.80;67.00
10812;DHT22;5458;51.496;7.334;2022-08-19T12:23:02;29.80;67.50
10812;DHT22;5458;51.496;7.334;2022-08-19T12:25:28;29.90;66.70
10812;DHT22;5458;51.496;7.334;2022-08-19T12:27:54;29.90;66.90
10812;DHT22;5458;51.496;7.334;2022-08-19T12:30:20;30.00;67.50
10812;DHT22;5458;51.496;7.334;2022-08-19T12:32:46;30.00;66.90
10812;DHT22;5458;51.496;7.334;2022-08-19T12:35:11;30.00;65.70
10812;DHT22;5458;51.496;7.334;2022-08-19T12:37:38;30.10;66.30
10812;DHT22;5458;51.496;7.334;2022-08-19T12:40:04;30.10;65.20
10812;DHT22;5458;51.496;7.334;2022-08-19T12:42:30;29.90;65.20
10812;DHT22;5458;51.496;7.334;2022-08-19T12:44:56;29.70;65.20
10812;DHT22;5458;51.496;7.334;2022-08-19T12:47:22;29.50;65.60
10812;DHT22;5458;51.496;7.334;2022-08-19T12:49:48;29.40;66.70
10812;DHT22;5458;51.496;7.334;2022-08-19T12:52:14;29.30;67.30
10812;DHT22;5458;51.496;7.334;2022-08-19T12:54:41;29.30;67.10
10812;DHT22;5458;51.496;7.334;2022-08-19T12:57:09;29.20;67.30
10812;DHT22;5458;51.496;7.334;2022-08-19T12:59:37;29.30;66.40
10812;DHT22;5458;51.496;7.334;2022-08-19T13:02:07;29.40;66.60
10812;DHT22;5458;51.496;7.334;2022-08-19T13:04:34;29.40;64.90
10812;DHT22;5458;51.496;7.334;2022-08-19T13:07:06;29.40;65.00
10812;DHT22;5458;51.496;7.334;2022-08-19T13:09:33;29.50;65.50
10812;DHT22;5458;51.496;7.334;2022-08-19T13:11:58;29.60;65.40
10812;DHT22;5458;51.496;7.334;2022-08-19T13:14:27;29.50;64.10
10812;DHT22;5458;51.496;7.334;2022-08-19T13:16:54;29.50;63.20
10812;DHT22;5458;51.496;7.334;2022-08-19T13:19:19;29.40;62.40
10812;DHT22;5458;51.496;7.334;2022-08-19T13:21:50;29.40;64.60
10812;DHT22;5458;51.496;7.334;2022-08-19T13:24:16;29.30;64.20
10812;DHT22;5458;51.496;7.334;2022-08-19T13:26:41;29.20;64.50
10812;DHT22;5458;51.496;7.334;2022-08-19T13:29:07;29.00;64.40
10812;DHT22;5458;51.496;7.334;2022-08-19T13:31:51;28.80;63.70
10812;DHT22;5458;51.496;7.334;2022-08-19T13:34:36;28.80;64.70
10812;DHT22;5458;51.496;7.334;2022-08-19T13:37:03;28.70;64.30
10812;DHT22;5458;51.496;7.334;2022-08-19T13:39:30;28.80;64.30
10812;DHT22;5458;51.496;7.334;2022-08-19T13:41:58;28.80;65.00
10812;DHT22;5458;51.496;7.334;2022-08-19T13:44:25;28.90;64.40
10812;DHT22;5458;51.496;7.334;2022-08-19T13:46:51;29.00;65.20
10812;DHT22;5458;51.496;7.334;2022-08-19T13:49:18;29.00;64.50
10812;DHT22;5458;51.496;7.334;2022-08-19T13:51:45;29.00;64.10
10812;DHT22;5458;51.496;7.334;2022-08-19T13:54:11;29.00;64.70
10812;DHT22;5458;51.496;7.334;2022-08-19T13:56:42;29.20;63.30
10812;DHT22;5458;51.496;7.334;2022-08-19T13:59:09;29.10;63.00
10812;DHT22;5458;51.496;7.334;2022-08-19T14:01:36;29.20;63.70
10812;DHT22;5458;51.496;7.334;2022-08-19T14:04:02;29.30;63.50
10812;DHT22;5458;51.496;7.334;2022-08-19T14:06:28;29.20;61.70
10812;DHT22;5458;51.496;7.334;2022-08-19T14:08:54;29.30;62.20
10812;DHT22;5458;51.496;7.334;2022-08-19T14:11:20;29.20;63.10
10812;DHT22;5458;51.496;7.334;2022-08-19T14:13:45;29.20;63.20
10812;DHT22;5458;51.496;7.334;2022-08-19T14:16:13;29.20;63.00
10812;DHT22;5458;51.496;7.334;2022-08-19T14:18:39;29.20;62.60
10812;DHT22;5458;51.496;7.334;2022-08-19T14:21:05;29.20;63.70
10812;DHT22;5458;51.496;7.334;2022-08-19T14:23:32;29.30;62.00
10812;DHT22;5458;51.496;7.334;2022-08-19T14:26:10;29.30;61.10
10812;DHT22;5458;51.496;7.334;2022-08-19T14:28:37;29.40;60.80
10812;DHT22;5458;51.496;7.334;2022-08-19T14:31:02;29.40;59.80
10812;DHT22;5458;51.496;7.334;2022-08-19T14:33:28;29.40;60.20
10812;DHT22;5458;51.496;7.334;2022-08-19T14:35:54;29.50;60.40
10812;DHT22;5458;51.496;7.334;2022-08-19T14:38:20;29.50;59.80
10812;DHT22;5458;51.496;7.334;2022-08-19T14:40:45;29.40;60.00
10812;DHT22;5458;51.496;7.334;2022-08-19T14:43:12;29.30;60.80
10812;DHT22;5458;51.496;7.334;2022-08-19T14:45:39;29.30;59.60
10812;DHT22;5458;51.496;7.334;2022-08-19T14:48:06;29.30;59.80
10812;DHT22;5458;51.496;7.334;2022-08-19T14:50:33;29.30;60.30
10812;DHT22;5458;51.496;7.334;2022-08-19T14:53:02;29.50;59.60
10812;DHT22;5458;51.496;7.334;2022-08-19T14:55:29;29.40;59.00
10812;DHT22;5458;51.496;7.334;2022-08-19T14:57:55;29.50;59.10
10812;DHT22;5458;51.496;7.334;2022-08-19T15:00:21;29.50;59.30
10812;DHT22;5458;51.496;7.334;2022-08-19T15:02:48;29.50;59.50
10812;DHT22;5458;51.496;7.334;2022-08-19T15:05:15;29.40;59.30
10812;DHT22;5458;51.496;7.334;2022-08-19T15:07:41;29.30;59.40
10812;DHT22;5458;51.496;7.334;2022-08-19T15:10:08;29.30;58.90
10812;DHT22;5458;51.496;7.334;2022-08-19T15:12:35;29.20;59.00
10812;DHT22;5458;51.496;7.334;2022-08-19T15:15:01;29.10;59.50
10812;DHT22;5458;51.496;7.334;2022-08-19T15:17:27;29.10;59.90
10812;DHT22;5458;51.496;7.334;2022-08-19T15:19:55;29.00;59.40
10812;DHT22;5458;51.496;7.334;2022-08-19T15:22:21;28.90;60.30
10812;DHT22;5458;51.496;7.334;2022-08-19T15:24:47;28.80;60.90
10812;DHT22;5458;51.496;7.334;2022-08-19T15:27:13;28.70;61.20
10812;DHT22;5458;51.496;7.334;2022-08-19T15:29:39;28.60;61.40
10812;DHT22;5458;51.496;7.334;2022-08-19T15:32:06;28.60;61.60
10812;DHT22;5458;51.496;7.334;2022-08-19T15:34:33;28.60;61.50
10812;DHT22;5458;51.496;7.334;2022-08-19T15:36:59;28.70;62.30
10812;DHT22;5458;51.496;7.334;2022-08-19T15:39:25;28.80;62.10
10812;DHT22;5458;51.496;7.334;2022-08-19T15:41:51;28.80;61.70
10812;DHT22;5458;51.496;7.334;2022-08-19T15:44:18;28.80;61.80
10812;DHT22;5458;51.496;7.334;2022-08-19T15:46:46;28.80;61.30
10812;DHT22;5458;51.496;7.334;2022-08-19T15:49:14;28.90;60.80
10812;DHT22;5458;51.496;7.334;2022-08-19T15:51:43;28.90;60.00
10812;DHT22;5458;51.496;7.334;2022-08-19T15:54:13;28.70;60.20
10812;DHT22;5458;51.496;7.334;2022-08-19T15:56:39;28.60;61.20